Time;durP1;ratioP1;P1;durP2;ratioP2;P2;SDS_P1;SDS_P2;PMS_P1;PMS_P2;Temp;Humidity;BMP_temperature;BMP_pressure;BME280_temperature;BME280_humidity;BME280_pressure;Samples;Min_cycle;Max_cycle;Signal;HPM_P1;HPM_P2
2023/04/10 00:00:19;;;;;;;9.80;9.03;;;7.30;1.00;;;;;;5073718;28;20232;-63
2023/04/10 00:02:45;;;;;;;9.37;8.47;;;7.30;1.00;;;;;;5074402;28;20205;-64
2023/04/10 00:05:10;;;;;;;8.90;8.23;;;7.30;1.00;;;;;;5074095;28;20170;-63
2023/04/10 00:07:36;;;;;;;8.90;8.17;;;7.30;1.00;;;;;;5073971;28;20280;-64
2023/04/10 00:10:02;;;;;;;10.20;8.60;;;7.30;1.00;;;;;;5072418;28;20190;-64
2023/04/10 00:12:28;;;;;;;9.80;8.60;;;7.30;1.00;;;;;;5074212;28;20627;-64
2023/04/10 00:14:53;;;;;;;10.27;8.90;;;7.30;1.00;;;;;;5074106;28;20177;-63
2023/04/10 00:17:19;;;;;;;9.27;8.40;;;7.30;1.00;;;;;;5073908;28;20186;-65
2023/04/10 00:19:45;;;;;;;10.63;9.63;;;7.20;1.00;;;;;;5054013;28;20254;-64
2023/04/10 00:22:10;;;;;;;9.13;8.27;;;7.30;1.00;;;;;;5054107;28;20171;-64
2023/04/10 00:24:36;;;;;;;9.93;9.03;;;7.30;1.00;;;;;;5053894;28;20167;-64
2023/04/10 00:27:01;;;;;;;11.07;8.60;;;7.30;1.00;;;;;;5052567;28;20735;-63
2023/04/10 00:29:27;;;;;;;10.03;9.03;;;7.30;1.00;;;;;;5052322;28;20175;-63
2023/04/10 00:31:53;;;;;;;8.93;8.13;;;7.30;1.00;;;;;;5061295;28;20174;-63
2023/04/10 00:34:18;;;;;;;8.77;8.07;;;7.30;1.00;;;;;;5072589;28;20182;-63
2023/04/10 00:36:46;;;;;;;10.80;9.40;;;7.30;1.00;;;;;;5072322;28;20277;-64
2023/04/10 00:39:12;;;;;;;9.50;8.60;;;7.30;1.00;;;;;;5072108;28;20618;-64
2023/04/10 00:41:37;;;;;;;9.37;8.47;;;7.30;1.00;;;;;;5072916;28;20201;-63
2023/04/10 00:44:03;;;;;;;10.23;8.20;;;7.20;1.00;;;;;;5073396;28;20178;-64
2023/04/10 00:46:30;;;;;;;9.57;8.73;;;7.30;1.00;;;;;;5073184;28;20202;-64
2023/04/10 00:48:56;;;;;;;9.47;8.47;;;7.20;1.00;;;;;;5072840;28;20208;-64
2023/04/10 00:51:22;;;;;;;8.03;7.23;;;7.20;1.00;;;;;;5072597;28;20178;-64
2023/04/10 00:53:53;;;;;;;9.77;8.93;;;7.20;1.00;;;;;;5073064;28;20580;-64
2023/04/10 00:56:19;;;;;;;8.43;7.83;;;7.30;1.00;;;;;;5073089;28;20190;-63
2023/04/10 00:58:45;;;;;;;10.23;8.07;;;7.20;1.00;;;;;;5073004;28;20243;-63
2023/04/10 01:01:11;;;;;;;8.83;7.93;;;7.20;1.00;;;;;;5072023;28;20180;-64
2023/04/10 01:03:39;;;;;;;8.20;7.53;;;7.20;1.00;;;;;;5071093;28;20185;-64
2023/04/10 01:06:14;;;;;;;8.77;7.97;;;7.20;1.00;;;;;;5072294;28;20265;-65
2023/04/10 01:08:39;;;;;;;8.87;8.00;;;7.20;1.00;;;;;;5072579;28;20292;-64
2023/04/10 01:11:20;;;;;;;10.40;8.40;;;7.20;1.00;;;;;;5072467;28;20336;-63
2023/04/10 01:14:06;;;;;;;8.53;7.73;;;7.20;1.00;;;;;;5072663;28;20178;-64
2023/04/10 01:16:48;;;;;;;8.73;7.87;;;7.20;1.00;;;;;;5072542;28;20190;-64
2023/04/10 01:19:32;;;;;;;9.13;8.33;;;7.20;1.00;;;;;;5071979;28;20675;-64
2023/04/10 01:22:01;;;;;;;8.90;8.20;;;7.20;1.00;;;;;;5071823;28;20652;-64
2023/04/10 01:24:42;;;;;;;8.07;7.47;;;7.20;1.00;;;;;;5072576;28;20185;-64
2023/04/10 01:28:02;;;;;;;9.43;8.57;;;7.10;1.00;;;;;;5072399;28;20244;-64
2023/04/10 01:30:30;;;;;;;10.57;7.97;;;7.10;1.00;;;;;;5009967;28;20254;-64
2023/04/10 01:33:00;;;;;;;11.63;9.00;;;7.00;1.00;;;;;;5056637;28;20194;-63
2023/04/10 01:35:28;;;;;;;10.37;9.37;;;7.00;1.00;;;;;;5072605;28;20169;-64
2023/04/10 01:37:54;;;;;;;9.93;8.90;;;7.00;1.00;;;;;;5071876;28;20663;-64
2023/04/10 01:40:21;;;;;;;8.73;8.00;;;7.00;1.00;;;;;;5057641;28;20206;-64
2023/04/10 01:42:51;;;;;;;9.00;8.17;;;7.00;1.00;;;;;;5049938;28;20585;-64
2023/04/10 01:45:21;;;;;;;9.50;8.60;;;7.00;8.20;;;;;;5071118;28;20182;-64
2023/04/10 01:47:47;;;;;;;8.67;7.97;;;7.00;11.90;;;;;;5071907;28;20278;-64
2023/04/10 01:50:14;;;;;;;9.60;8.70;;;7.00;17.50;;;;;;5071728;28;20224;-64
2023/04/10 01:52:41;;;;;;;9.93;8.63;;;7.00;21.10;;;;;;5071934;28;20167;-64
2023/04/10 01:55:08;;;;;;;9.37;8.40;;;7.00;21.60;;;;;;5072001;28;20261;-64
2023/04/10 01:57:35;;;;;;;8.13;7.53;;;7.00;23.70;;;;;;5071840;28;20194;-63
2023/04/10 02:00:01;;;;;;;10.20;9.00;;;6.90;28.90;;;;;;5071220;28;20178;-63
2023/04/10 02:02:31;;;;;;;9.27;8.43;;;6.90;35.90;;;;;;5071725;28;20178;-64
2023/04/10 02:04:56;;;;;;;9.47;8.27;;;6.90;52.00;;;;;;5071900;28;20230;-64
2023/04/10 02:07:41;;;;;;;10.23;8.10;;;6.90;73.20;;;;;;5064558;28;20588;-64
2023/04/10 02:10:12;;;;;;;10.17;9.20;;;6.90;87.30;;;;;;5051416;28;20190;-64
2023/04/10 02:12:42;;;;;;;8.63;7.77;;;6.80;92.50;;;;;;5050850;28;20648;-64
2023/04/10 02:15:09;;;;;;;9.87;9.00;;;6.80;95.40;;;;;;5051802;28;20533;-64
2023/04/10 02:17:36;;;;;;;8.90;7.90;;;6.80;97.00;;;;;;5051611;28;20194;-64
2023/04/10 02:20:03;;;;;;;9.03;8.33;;;6.80;98.80;;;;;;5062376;28;20253;-64
2023/04/10 02:22:29;;;;;;;9.23;8.33;;;6.70;98.40;;;;;;5071863;28;20578;-64
2023/04/10 02:24:56;;;;;;;10.30;9.33;;;6.70;99.90;;;;;;5071602;28;20278;-63
2023/04/10 02:27:30;;;;;;;10.00;9.00;;;6.80;99.40;;;;;;5071783;28;20690;-63
2023/04/10 02:29:56;;;;;;;9.33;8.10;;;6.80;99.90;;;;;;5071237;28;20707;-63
2023/04/10 02:32:22;;;;;;;9.27;8.47;;;6.70;99.90;;;;;;5070997;28;20252;-63
2023/04/10 02:34:48;;;;;;;11.83;7.50;;;6.70;99.90;;;;;;5071045;28;20312;-64
2023/04/10 02:37:13;;;;;;;9.00;8.20;;;6.60;99.90;;;;;;5071242;28;20269;-64
2023/04/10 02:39:39;;;;;;;8.80;8.00;;;6.60;99.90;;;;;;5070901;28;20178;-64
2023/04/10 02:42:04;;;;;;;9.27;8.37;;;6.50;99.90;;;;;;5071347;28;20171;-64
2023/04/10 02:44:30;;;;;;;10.17;8.80;;;6.50;99.90;;;;;;5071227;28;20666;-64
2023/04/10 02:46:55;;;;;;;9.77;8.87;;;6.50;99.90;;;;;;5070789;28;20725;-64
2023/04/10 02:49:21;;;;;;;11.63;8.53;;;6.50;99.90;;;;;;5070797;28;20202;-64
2023/04/10 02:51:47;;;;;;;12.13;9.13;;;6.40;99.90;;;;;;5070225;28;20174;-64
2023/04/10 02:54:12;;;;;;;11.03;8.50;;;6.40;99.90;;;;;;5070982;28;20182;-64
2023/04/10 02:56:38;;;;;;;10.33;9.37;;;6.40;99.90;;;;;;5070918;28;20656;-65
2023/04/10 02:59:03;;;;;;;9.27;8.33;;;6.30;99.90;;;;;;5071233;28;20189;-64
2023/04/10 03:01:29;;;;;;;13.30;9.40;;;6.30;99.90;;;;;;5070515;28;20217;-65
2023/04/10 03:03:55;;;;;;;8.93;8.20;;;6.30;99.90;;;;;;5070948;28;20209;-63
2023/04/10 03:06:22;;;;;;;8.73;8.03;;;6.20;99.90;;;;;;5071581;28;20221;-65
2023/04/10 03:08:48;;;;;;;10.60;9.67;;;6.20;99.90;;;;;;5070799;28;20240;-64
2023/04/10 03:11:13;;;;;;;10.33;9.20;;;6.10;99.90;;;;;;5070749;28;20201;-63
2023/04/10 03:13:39;;;;;;;9.83;8.83;;;6.10;99.90;;;;;;5070771;28;20660;-64
2023/04/10 03:16:05;;;;;;;9.57;8.57;;;6.00;99.90;;;;;;5070952;28;20281;-64
2023/04/10 03:18:33;;;;;;;10.40;9.20;;;6.00;99.90;;;;;;5070932;28;20261;-64
2023/04/10 03:20:58;;;;;;;9.73;8.83;;;5.90;99.90;;;;;;5070349;28;20212;-64
2023/04/10 03:23:24;;;;;;;10.47;9.53;;;5.90;99.90;;;;;;5070808;28;20179;-64
2023/04/10 03:25:54;;;;;;;10.07;9.27;;;5.90;99.90;;;;;;5070986;28;20535;-63
2023/04/10 03:28:22;;;;;;;9.97;9.13;;;5.90;99.90;;;;;;5070874;28;20213;-63
2023/04/10 03:30:49;;;;;;;9.83;8.80;;;5.90;99.90;;;;;;5070194;28;20182;-63
2023/04/10 03:33:15;;;;;;;10.17;9.17;;;5.80;99.90;;;;;;5070493;28;20184;-63
2023/04/10 03:35:41;;;;;;;9.80;8.97;;;5.80;99.90;;;;;;5070807;28;20171;-64
2023/04/10 03:38:06;;;;;;;10.23;9.17;;;5.80;99.90;;;;;;5070539;28;20632;-64
2023/04/10 03:40:33;;;;;;;10.23;9.43;;;5.80;99.90;;;;;;5070461;28;20709;-63
2023/04/10 03:42:59;;;;;;;11.73;10.60;;;5.80;99.90;;;;;;5070636;28;20662;-63
2023/04/10 03:45:24;;;;;;;9.80;8.90;;;5.80;99.90;;;;;;5073069;28;20235;-63
2023/04/10 03:47:51;;;;;;;8.40;7.70;;;5.80;99.90;;;;;;5074323;28;20614;-64
2023/04/10 03:50:17;;;;;;;8.77;8.10;;;5.70;99.90;;;;;;5073807;28;20186;-64
2023/04/10 03:52:43;;;;;;;9.93;8.93;;;5.70;99.90;;;;;;5074232;28;20262;-64
2023/04/10 03:55:08;;;;;;;9.77;8.90;;;5.70;99.90;;;;;;5074525;28;20162;-64
2023/04/10 03:57:34;;;;;;;11.40;9.13;;;5.70;99.90;;;;;;5073756;28;20240;-63
2023/04/10 04:00:00;;;;;;;10.40;9.40;;;5.60;99.90;;;;;;5073466;28;20196;-64
2023/04/10 04:02:25;;;;;;;12.40;8.53;;;5.60;99.90;;;;;;5074066;28;20193;-65
2023/04/10 04:04:51;;;;;;;10.70;9.20;;;5.60;99.90;;;;;;5062365;28;20182;-64
2023/04/10 04:07:17;;;;;;;12.30;11.30;;;5.50;99.90;;;;;;5054139;28;20632;-63
2023/04/10 04:09:42;;;;;;;10.23;9.33;;;5.50;99.90;;;;;;5071823;28;20204;-64
2023/04/10 04:12:08;;;;;;;10.37;9.47;;;5.50;99.90;;;;;;5074184;28;20531;-65
2023/04/10 04:14:34;;;;;;;9.80;8.93;;;5.50;99.90;;;;;;5074105;28;20181;-64
2023/04/10 04:16:59;;;;;;;10.80;9.70;;;5.50;99.90;;;;;;5073987;28;20193;-65
2023/04/10 04:19:25;;;;;;;9.00;8.20;;;5.50;99.90;;;;;;5072244;28;20185;-64
2023/04/10 04:21:51;;;;;;;11.37;10.27;;;5.50;99.90;;;;;;5055774;28;20190;-64
2023/04/10 04:24:16;;;;;;;9.30;8.63;;;5.40;46.10;;;;;;5054428;28;20182;-64
2023/04/10 04:26:42;;;;;;;9.90;9.17;;;5.40;99.90;;;;;;5053725;28;20199;-63
2023/04/10 04:29:07;;;;;;;10.03;9.27;;;5.40;99.90;;;;;;5053453;28;20202;-63
2023/04/10 04:31:33;;;;;;;11.17;10.13;;;5.50;99.90;;;;;;5053530;28;20245;-64
2023/04/10 04:33:59;;;;;;;10.60;9.60;;;5.40;99.90;;;;;;5070911;28;20212;-65
2023/04/10 04:36:26;;;;;;;10.20;9.20;;;5.40;99.90;;;;;;5073438;28;20240;-64
2023/04/10 04:38:52;;;;;;;11.83;10.80;;;5.40;99.90;;;;;;5072082;28;20178;-65
2023/04/10 04:41:17;;;;;;;10.83;9.83;;;5.40;99.90;;;;;;5071817;28;20182;-64
2023/04/10 04:43:43;;;;;;;10.83;9.87;;;5.40;99.90;;;;;;5073069;28;20210;-64
2023/04/10 04:46:09;;;;;;;9.60;8.70;;;5.40;99.90;;;;;;5073314;28;20194;-64
2023/04/10 04:48:35;;;;;;;9.07;8.23;;;5.40;99.90;;;;;;5073132;28;20579;-65
2023/04/10 04:51:00;;;;;;;10.13;9.27;;;5.40;99.90;;;;;;5072962;28;20260;-64
2023/04/10 04:53:26;;;;;;;9.67;8.77;;;5.30;99.90;;;;;;5073030;28;20711;-65
2023/04/10 04:55:52;;;;;;;10.10;9.23;;;5.30;99.90;;;;;;5070926;28;20209;-64
2023/04/10 04:58:17;;;;;;;9.07;8.37;;;5.40;99.90;;;;;;5072090;28;20186;-65
2023/04/10 05:00:43;;;;;;;9.87;8.93;;;5.30;99.90;;;;;;5072208;28;20182;-65
2023/04/10 05:03:08;;;;;;;10.67;9.67;;;5.30;99.90;;;;;;5073114;28;20651;-65
2023/04/10 05:05:34;;;;;;;10.00;9.03;;;5.30;99.90;;;;;;5072738;28;20390;-64
2023/04/10 05:08:00;;;;;;;10.63;9.53;;;5.40;99.90;;;;;;5072845;28;20595;-65
2023/04/10 05:10:25;;;;;;;9.93;9.03;;;5.30;99.90;;;;;;5072510;28;20201;-65
2023/04/10 05:12:51;;;;;;;10.40;9.50;;;5.40;99.90;;;;;;5072645;28;20641;-65
2023/04/10 05:15:16;;;;;;;10.33;9.30;;;5.50;99.90;;;;;;5072929;28;20181;-65
2023/04/10 05:17:42;;;;;;;9.73;8.33;;;5.50;99.90;;;;;;5072201;28;20202;-65
2023/04/10 05:20:09;;;;;;;9.50;8.70;;;5.60;99.90;;;;;;5072454;28;20192;-65
2023/04/10 05:22:34;;;;;;;10.50;9.40;;;5.70;99.90;;;;;;5072426;28;20189;-65
2023/04/10 05:25:00;;;;;;;10.30;9.30;;;5.80;99.90;;;;;;5072878;28;20228;-65
2023/04/10 05:27:26;;;;;;;10.33;9.40;;;5.80;99.90;;;;;;5072228;28;20210;-64
2023/04/10 05:29:51;;;;;;;10.00;8.97;;;5.90;99.90;;;;;;5072147;28;20683;-65
2023/04/10 05:32:17;;;;;;;9.57;8.73;;;6.00;99.90;;;;;;5072675;28;20223;-65
2023/04/10 05:34:43;;;;;;;9.43;8.53;;;6.10;99.90;;;;;;5072278;28;20733;-65
2023/04/10 05:37:10;;;;;;;10.13;9.23;;;6.20;99.90;;;;;;5070631;28;20285;-65
2023/04/10 05:39:35;;;;;;;9.17;8.40;;;6.30;99.90;;;;;;5065993;28;20162;-65
2023/04/10 05:42:02;;;;;;;11.43;9.33;;;6.40;99.90;;;;;;5051104;28;20201;-65
2023/04/10 05:44:28;;;;;;;9.67;8.73;;;6.40;99.90;;;;;;5052661;28;20228;-65
2023/04/10 05:46:53;;;;;;;11.03;9.53;;;6.50;99.90;;;;;;5060303;28;20193;-65
2023/04/10 05:49:19;;;;;;;8.57;7.80;;;6.50;99.90;;;;;;5071766;28;20293;-64
2023/04/10 05:51:49;;;;;;;9.67;8.77;;;6.60;99.90;;;;;;5071787;28;20205;-64
2023/04/10 05:54:15;;;;;;;10.73;8.17;;;6.70;99.90;;;;;;5071952;28;20536;-64
2023/04/10 05:56:40;;;;;;;8.30;7.57;;;6.70;99.90;;;;;;5071933;28;20560;-64
2023/04/10 05:59:06;;;;;;;10.17;9.17;;;6.70;99.90;;;;;;5068890;28;20186;-65
2023/04/10 06:01:31;;;;;;;9.60;8.73;;;6.80;99.90;;;;;;5069427;28;20221;-64
2023/04/10 06:03:57;;;;;;;9.47;8.57;;;6.80;99.90;;;;;;5071411;28;20178;-64
2023/04/10 06:06:24;;;;;;;10.37;8.07;;;6.80;99.90;;;;;;5072043;28;20579;-65
2023/04/10 06:08:51;;;;;;;7.97;7.37;;;6.90;99.90;;;;;;5071672;28;20611;-65
2023/04/10 06:11:16;;;;;;;9.27;8.40;;;6.90;99.90;;;;;;5071658;28;20162;-65
2023/04/10 06:13:42;;;;;;;10.03;9.17;;;7.00;99.90;;;;;;5071473;28;20671;-65
2023/04/10 06:16:08;;;;;;;10.03;9.23;;;7.10;99.90;;;;;;5071899;28;20194;-65
2023/04/10 06:18:33;;;;;;;9.13;8.43;;;7.30;99.90;;;;;;5071565;28;20174;-64
2023/04/10 06:21:00;;;;;;;9.60;8.63;;;7.50;99.90;;;;;;5071486;28;20209;-65
2023/04/10 06:23:27;;;;;;;9.03;8.13;;;7.70;99.90;;;;;;5071478;28;20170;-65
2023/04/10 06:25:53;;;;;;;7.67;7.07;;;8.00;99.90;;;;;;5071556;28;20196;-65
2023/04/10 06:28:19;;;;;;;9.57;8.23;;;8.30;99.90;;;;;;5071398;28;20208;-65
2023/04/10 06:30:45;;;;;;;9.17;8.23;;;8.70;99.90;;;;;;5071218;28;20170;-63
2023/04/10 06:33:10;;;;;;;9.17;8.33;;;9.10;99.90;;;;;;5069632;28;20178;-64
2023/04/10 06:35:36;;;;;;;8.23;7.43;;;9.60;99.90;;;;;;5070800;28;20174;-65
2023/04/10 06:38:02;;;;;;;9.00;8.20;;;10.00;99.90;;;;;;5071450;28;20170;-65
2023/04/10 06:40:32;;;;;;;7.30;6.80;;;10.40;99.90;;;;;;5070860;28;20182;-65
2023/04/10 06:42:59;;;;;;;7.20;6.47;;;10.70;99.90;;;;;;5071360;28;20584;-65
2023/04/10 06:45:24;;;;;;;9.70;7.63;;;11.00;99.90;;;;;;5071204;28;20269;-64
2023/04/10 06:47:50;;;;;;;7.60;6.57;;;11.20;99.90;;;;;;5071252;28;20274;-64
2023/04/10 06:50:16;;;;;;;8.37;7.63;;;11.50;99.90;;;;;;5069827;28;20510;-64
2023/04/10 06:52:43;;;;;;;7.17;6.47;;;11.60;99.90;;;;;;5071194;28;20169;-63
2023/04/10 06:55:09;;;;;;;8.27;7.37;;;11.80;99.90;;;;;;5071176;28;20209;-64
2023/04/10 06:57:34;;;;;;;8.63;7.83;;;12.10;99.90;;;;;;5069810;28;20240;-65
2023/04/10 07:00:00;;;;;;;7.63;6.93;;;12.20;99.90;;;;;;5070578;28;20181;-65
2023/04/10 07:02:25;;;;;;;7.00;6.50;;;12.30;99.90;;;;;;5069770;28;20178;-66
2023/04/10 07:04:52;;;;;;;6.87;6.27;;;12.50;99.90;;;;;;5070849;28;20174;-65
2023/04/10 07:07:18;;;;;;;7.23;6.63;;;12.60;99.90;;;;;;5071669;28;20194;-64
2023/04/10 07:09:43;;;;;;;6.97;6.27;;;12.80;99.90;;;;;;5070375;28;20192;-64
2023/04/10 07:12:09;;;;;;;6.87;6.27;;;13.10;99.90;;;;;;5070152;28;20174;-64
2023/04/10 07:14:35;;;;;;;6.77;6.17;;;13.30;99.90;;;;;;5070992;28;20200;-64
2023/04/10 07:17:01;;;;;;;6.90;6.30;;;13.30;99.90;;;;;;5070961;28;20197;-64
2023/04/10 07:19:26;;;;;;;7.07;6.47;;;13.40;99.90;;;;;;5073221;28;20595;-64
2023/04/10 07:21:52;;;;;;;7.87;7.10;;;13.40;99.90;;;;;;5074855;28;20212;-64
2023/04/10 07:24:18;;;;;;;7.30;6.60;;;13.50;99.90;;;;;;5074726;28;20184;-64
2023/04/10 07:26:46;;;;;;;7.43;6.43;;;13.60;99.90;;;;;;5073689;28;20198;-64
2023/04/10 07:29:13;;;;;;;7.63;6.83;;;13.70;99.90;;;;;;5074410;28;20197;-65
2023/04/10 07:31:38;;;;;;;6.83;6.23;;;13.70;99.90;;;;;;5073248;28;20178;-64
2023/04/10 07:34:05;;;;;;;6.93;6.27;;;13.80;99.90;;;;;;5074431;28;20235;-64
2023/04/10 07:36:31;;;;;;;7.07;6.37;;;13.60;99.90;;;;;;5073501;28;20194;-64
2023/04/10 07:38:57;;;;;;;6.60;6.00;;;13.50;99.90;;;;;;5074236;28;20261;-65
2023/04/10 07:41:22;;;;;;;7.40;6.37;;;13.60;99.90;;;;;;5073764;28;20243;-64
2023/04/10 07:43:48;;;;;;;6.63;6.07;;;13.70;99.90;;;;;;5074020;28;20174;-64
2023/04/10 07:46:15;;;;;;;6.47;5.93;;;13.80;99.90;;;;;;5073664;28;20244;-64
2023/04/10 07:48:40;;;;;;;6.97;6.37;;;13.90;99.90;;;;;;5074174;28;20197;-64
2023/04/10 07:51:08;;;;;;;7.43;6.60;;;13.80;99.90;;;;;;5074025;28;20197;-64
2023/04/10 07:53:35;;;;;;;7.00;6.40;;;13.90;99.90;;;;;;5074253;28;20205;-65
2023/04/10 07:56:00;;;;;;;6.80;6.20;;;13.90;99.90;;;;;;5073979;28;20233;-64
2023/04/10 07:58:26;;;;;;;6.40;5.87;;;14.10;99.90;;;;;;5073619;28;20267;-64
2023/04/10 08:00:52;;;;;;;6.33;5.83;;;14.30;99.90;;;;;;5073848;28;20182;-64
2023/04/10 08:03:17;;;;;;;5.80;5.23;;;14.50;99.90;;;;;;5074088;28;20178;-64
2023/04/10 08:05:43;;;;;;;7.00;6.40;;;14.80;99.90;;;;;;5073829;28;20202;-64
2023/04/10 08:08:08;;;;;;;7.20;6.50;;;14.90;99.90;;;;;;5073819;28;20594;-64
2023/04/10 08:10:38;;;;;;;6.00;5.20;;;15.00;99.90;;;;;;5072357;28;20277;-64
2023/04/10 08:13:04;;;;;;;6.30;5.37;;;15.00;99.90;;;;;;5073845;28;20249;-64
2023/04/10 08:15:30;;;;;;;5.60;5.20;;;15.00;99.90;;;;;;5073957;28;20224;-64
2023/04/10 08:17:56;;;;;;;6.00;5.47;;;15.10;99.90;;;;;;5073343;28;20710;-64
2023/04/10 08:20:21;;;;;;;6.73;6.13;;;15.30;99.90;;;;;;5073686;28;20249;-64
2023/04/10 08:22:47;;;;;;;6.43;5.60;;;15.30;99.90;;;;;;5073141;28;20261;-67
2023/04/10 08:25:12;;;;;;;6.00;5.50;;;15.30;99.90;;;;;;5073975;28;20588;-64
2023/04/10 08:27:38;;;;;;;6.03;5.57;;;15.20;99.90;;;;;;5071726;28;20275;-64
2023/04/10 08:30:04;;;;;;;5.37;4.97;;;15.10;99.90;;;;;;5072420;28;20709;-64
2023/04/10 08:32:30;;;;;;;6.97;5.93;;;15.00;99.90;;;;;;5073518;28;20505;-64
2023/04/10 08:34:56;;;;;;;5.97;5.33;;;15.00;99.90;;;;;;5073397;28;20188;-64
2023/04/10 08:37:21;;;;;;;6.37;5.87;;;15.00;99.90;;;;;;5073391;28;20564;-64
2023/04/10 08:39:47;;;;;;;6.23;5.83;;;15.00;99.90;;;;;;5072900;28;20170;-65
2023/04/10 08:42:13;;;;;;;6.40;5.90;;;15.00;99.90;;;;;;5073488;28;20171;-65
2023/04/10 08:44:40;;;;;;;9.80;5.57;;;15.10;99.90;;;;;;5073508;28;20666;-65
2023/04/10 08:47:07;;;;;;;5.80;5.33;;;15.20;99.90;;;;;;5071840;28;20201;-65
2023/04/10 08:49:47;;;;;;;7.73;6.13;;;15.20;99.90;;;;;;5072728;28;20255;-66
2023/04/10 08:52:21;;;;;;;5.83;5.33;;;15.30;99.90;;;;;;5073006;28;20227;-65
2023/04/10 08:54:49;;;;;;;5.53;5.23;;;15.30;99.90;;;;;;5068133;28;20185;-65
2023/04/10 08:57:19;;;;;;;6.00;5.50;;;15.30;99.90;;;;;;5056891;28;20194;-65
2023/04/10 08:59:46;;;;;;;5.40;5.00;;;15.20;99.90;;;;;;5072534;28;20182;-65
2023/04/10 09:02:11;;;;;;;5.63;5.13;;;15.10;99.90;;;;;;5072908;28;20224;-65
2023/04/10 09:04:37;;;;;;;5.43;5.03;;;15.10;99.90;;;;;;5073373;28;20217;-65
2023/04/10 09:07:03;;;;;;;5.77;5.37;;;15.30;99.90;;;;;;5072906;28;20190;-66
2023/04/10 09:09:31;;;;;;;5.83;5.20;;;15.60;99.90;;;;;;5071296;28;20693;-64
2023/04/10 09:11:59;;;;;;;5.27;4.87;;;15.90;99.90;;;;;;5072327;28;20185;-64
2023/04/10 09:14:33;;;;;;;5.40;4.90;;;16.30;99.90;;;;;;5072871;28;20166;-64
2023/04/10 09:17:11;;;;;;;5.07;4.67;;;16.40;99.80;;;;;;5072341;28;20613;-64
2023/04/10 09:19:37;;;;;;;5.30;4.90;;;16.60;98.80;;;;;;5072298;28;20170;-64
2023/04/10 09:22:03;;;;;;;5.70;5.30;;;16.70;99.00;;;;;;5072458;28;20196;-65
2023/04/10 09:24:28;;;;;;;5.33;4.93;;;16.90;97.80;;;;;;5072285;28;20584;-65
2023/04/10 09:26:54;;;;;;;5.37;4.90;;;17.10;98.40;;;;;;5071934;28;20244;-65
2023/04/10 09:29:20;;;;;;;5.67;5.17;;;17.30;98.80;;;;;;5071218;28;20232;-65
2023/04/10 09:31:46;;;;;;;5.60;5.10;;;17.20;97.20;;;;;;5072143;28;20174;-65
2023/04/10 09:34:20;;;;;;;5.33;4.97;;;17.10;96.80;;;;;;5072617;28;20178;-65
2023/04/10 09:36:56;;;;;;;5.10;4.70;;;17.00;96.90;;;;;;5072487;28;20193;-65
2023/04/10 09:39:31;;;;;;;5.30;4.90;;;17.00;97.10;;;;;;5067860;28;20670;-65
2023/04/10 09:41:57;;;;;;;5.70;4.17;;;17.10;96.70;;;;;;5071175;28;20743;-65
2023/04/10 09:44:33;;;;;;;4.97;4.67;;;17.10;96.60;;;;;;5060748;28;20198;-64
2023/04/10 09:47:15;;;;;;;5.50;5.10;;;17.10;95.90;;;;;;5056741;28;20276;-64
2023/04/10 09:49:47;;;;;;;5.40;4.90;;;17.10;96.00;;;;;;5062051;28;20190;-66
2023/04/10 09:52:25;;;;;;;5.10;4.70;;;17.30;95.70;;;;;;5072087;28;20174;-66
2023/04/10 09:54:54;;;;;;;5.27;4.77;;;17.30;95.70;;;;;;5071627;28;20170;-65
2023/04/10 09:57:22;;;;;;;5.57;5.17;;;17.50;95.10;;;;;;5070059;28;20296;-66
2023/04/10 09:59:54;;;;;;;5.97;4.50;;;17.60;96.70;;;;;;5071237;28;20189;-65
2023/04/10 10:02:22;;;;;;;4.90;4.60;;;17.80;95.30;;;;;;5071741;28;20534;-64
2023/04/10 10:04:49;;;;;;;4.97;4.60;;;18.00;95.70;;;;;;5071758;28;20194;-65
2023/04/10 10:07:16;;;;;;;5.00;4.60;;;18.10;94.80;;;;;;5071761;28;20228;-65
2023/04/10 10:09:43;;;;;;;5.37;4.97;;;18.20;93.60;;;;;;5071023;28;20207;-65
2023/04/10 10:12:14;;;;;;;5.00;4.70;;;18.20;94.80;;;;;;5071614;28;20209;-64
2023/04/10 10:14:56;;;;;;;4.70;4.33;;;18.40;93.80;;;;;;5071561;28;20174;-65
2023/04/10 10:17:25;;;;;;;4.90;4.60;;;18.40;93.10;;;;;;5070792;28;20721;-65
2023/04/10 10:20:02;;;;;;;4.87;4.37;;;18.40;92.90;;;;;;5069587;28;20174;-65
2023/04/10 10:22:29;;;;;;;4.67;4.27;;;18.70;93.00;;;;;;5075644;28;20174;-65
2023/04/10 10:24:58;;;;;;;4.77;4.37;;;19.10;93.80;;;;;;5072149;28;20209;-66
2023/04/10 10:27:25;;;;;;;4.43;4.05;;;19.30;92.70;;;;;;5071598;28;20236;-66
2023/04/10 10:29:52;;;;;;;4.50;4.20;;;19.60;92.10;;;;;;5070063;28;20536;-66
2023/04/10 10:32:19;;;;;;;4.37;4.07;;;19.60;92.30;;;;;;5070356;28;20170;-65
2023/04/10 10:34:46;;;;;;;4.53;4.15;;;19.70;92.30;;;;;;5071307;28;20265;-66
2023/04/10 10:37:12;;;;;;;4.28;3.97;;;19.70;91.60;;;;;;5070236;28;20194;-66
2023/04/10 10:39:48;;;;;;;4.28;3.88;;;19.50;91.50;;;;;;5070991;28;20186;-65
2023/04/10 10:42:41;;;;;;;4.47;4.17;;;19.40;91.10;;;;;;5070810;28;20174;-66
2023/04/10 10:45:12;;;;;;;4.63;4.23;;;19.20;90.50;;;;;;5067437;28;20174;-66
2023/04/10 10:47:50;;;;;;;4.43;4.10;;;19.00;91.20;;;;;;5069723;28;20675;-66
2023/04/10 10:50:16;;;;;;;4.90;4.50;;;18.90;91.70;;;;;;5071662;28;20678;-66
2023/04/10 10:52:43;;;;;;;3.80;3.60;;;18.90;91.10;;;;;;5070848;28;20265;-66
2023/04/10 10:55:20;;;;;;;4.47;4.03;;;19.10;92.50;;;;;;5071634;28;20170;-66
2023/04/10 10:58:00;;;;;;;5.18;4.78;;;19.20;91.90;;;;;;5070935;28;20231;-66
2023/04/10 11:00:49;;;;;;;4.40;4.10;;;19.20;91.50;;;;;;5069904;28;20174;-66
2023/04/10 11:03:14;;;;;;;4.87;4.47;;;19.30;91.30;;;;;;5071142;28;20705;-66
2023/04/10 11:06:08;;;;;;;4.78;4.47;;;19.20;91.20;;;;;;5066190;28;20174;-66
2023/04/10 11:08:44;;;;;;;4.67;4.37;;;19.20;91.70;;;;;;5070788;28;20210;-66
2023/04/10 11:11:18;;;;;;;4.30;4.00;;;19.30;90.20;;;;;;5062284;28;20170;-65
2023/04/10 11:13:50;;;;;;;5.27;4.80;;;19.20;90.60;;;;;;5069383;28;20177;-65
2023/04/10 11:16:17;;;;;;;4.40;4.10;;;19.10;90.90;;;;;;5070737;28;20190;-65
2023/04/10 11:18:49;;;;;;;4.67;4.27;;;19.20;91.20;;;;;;5066366;28;20175;-66
2023/04/10 11:21:22;;;;;;;4.50;4.20;;;19.10;91.00;;;;;;5050944;28;20179;-66
2023/04/10 11:23:54;;;;;;;5.00;4.50;;;19.20;90.90;;;;;;5055963;28;20177;-66
2023/04/10 11:26:39;;;;;;;4.83;4.53;;;19.30;90.10;;;;;;5071158;28;20251;-65
2023/04/10 11:29:06;;;;;;;4.63;4.00;;;19.20;90.90;;;;;;5069244;28;20205;-65
2023/04/10 11:31:32;;;;;;;4.57;4.33;;;19.10;89.50;;;;;;5068522;28;20210;-65
2023/04/10 11:34:03;;;;;;;4.30;4.00;;;19.00;88.40;;;;;;5069576;28;20223;-65
2023/04/10 11:36:30;;;;;;;4.90;4.40;;;18.90;90.10;;;;;;5070867;28;20672;-66
2023/04/10 11:38:58;;;;;;;4.57;4.27;;;18.90;90.00;;;;;;5070502;28;20178;-66
2023/04/10 11:41:31;;;;;;;4.87;4.47;;;19.00;91.70;;;;;;5069700;28;20178;-66
2023/04/10 11:43:59;;;;;;;5.30;4.90;;;18.80;89.00;;;;;;5069990;28;20218;-66
2023/04/10 11:46:25;;;;;;;4.90;4.60;;;18.80;91.10;;;;;;5070534;28;20202;-65
2023/04/10 11:49:02;;;;;;;4.67;4.37;;;18.80;90.30;;;;;;5071033;28;20724;-65
2023/04/10 11:51:29;;;;;;;4.77;4.40;;;18.90;90.70;;;;;;5070679;28;20170;-66
2023/04/10 11:54:09;;;;;;;5.17;4.53;;;19.00;90.20;;;;;;5069490;28;20174;-66
2023/04/10 11:56:35;;;;;;;4.40;4.10;;;19.00;89.80;;;;;;5065838;28;20343;-66
2023/04/10 11:59:06;;;;;;;4.03;3.63;;;19.10;88.70;;;;;;5069509;28;20174;-65
2023/04/10 12:01:32;;;;;;;4.03;3.83;;;19.10;85.90;;;;;;5069011;28;20548;-66
2023/04/10 12:03:58;;;;;;;4.70;4.30;;;19.00;87.00;;;;;;5070537;28;20211;-66
2023/04/10 12:06:24;;;;;;;4.30;4.00;;;19.00;86.90;;;;;;5072721;28;20293;-66
2023/04/10 12:08:50;;;;;;;4.67;4.23;;;19.00;86.90;;;;;;5074156;28;20344;-65
2023/04/10 12:11:23;;;;;;;3.97;3.67;;;19.10;87.50;;;;;;5074044;28;20177;-65
2023/04/10 12:13:53;;;;;;;4.10;3.90;;;19.30;89.00;;;;;;5073953;28;20177;-66
2023/04/10 12:16:20;;;;;;;3.67;3.43;;;19.50;87.50;;;;;;5074185;28;20196;-65
2023/04/10 12:18:46;;;;;;;3.85;3.65;;;19.60;86.00;;;;;;5073488;28;20299;-65
2023/04/10 12:21:12;;;;;;;4.05;3.75;;;19.70;86.70;;;;;;5073844;28;20194;-66
2023/04/10 12:23:38;;;;;;;4.50;4.20;;;19.80;86.40;;;;;;5074092;28;20643;-66
2023/04/10 12:26:17;;;;;;;4.33;4.03;;;20.00;86.90;;;;;;5073740;28;20201;-65
2023/04/10 12:28:54;;;;;;;4.37;4.07;;;20.00;86.20;;;;;;5073835;28;20205;-66
2023/04/10 12:31:46;;;;;;;4.07;3.78;;;20.10;87.00;;;;;;5073601;28;20192;-65
2023/04/10 12:34:17;;;;;;;3.92;3.63;;;20.20;87.10;;;;;;5072631;28;20641;-66
2023/04/10 12:36:51;;;;;;;4.22;3.97;;;20.20;78.60;;;;;;5073950;28;20672;-66
2023/04/10 12:39:23;;;;;;;3.97;3.67;;;20.20;79.10;;;;;;5073658;28;20549;-66
2023/04/10 12:41:49;;;;;;;3.92;3.72;;;20.40;77.00;;;;;;5072714;28;20575;-66
2023/04/10 12:44:15;;;;;;;3.78;3.50;;;20.60;73.10;;;;;;5073940;28;20170;-66
2023/04/10 12:46:41;;;;;;;3.97;3.67;;;20.70;75.20;;;;;;5072189;28;20217;-65
2023/04/10 12:49:12;;;;;;;4.57;3.97;;;20.90;72.50;;;;;;5073234;28;20202;-65
2023/04/10 12:51:55;;;;;;;4.55;4.25;;;21.00;72.80;;;;;;5073443;28;20292;-66
2023/04/10 12:54:32;;;;;;;3.95;3.70;;;21.00;70.90;;;;;;5073576;28;20275;-65